createdAt,value
2023-02-13T00:02:16.120Z,12.93
2023-02-13T00:04:46.907Z,16.03
2023-02-13T00:07:16.035Z,12.00
2023-02-13T00:09:45.600Z,11.83
2023-02-13T00:12:14.942Z,14.33
2023-02-13T00:14:44.104Z,14.73
2023-02-13T00:17:13.486Z,12.37
2023-02-13T00:19:42.722Z,11.70
2023-02-13T00:22:13.481Z,12.10
2023-02-13T00:24:42.679Z,11.97
2023-02-13T00:27:12.126Z,13.30
2023-02-13T00:29:41.456Z,10.80
2023-02-13T00:32:10.956Z,12.13
2023-02-13T00:34:40.165Z,8.53
2023-02-13T00:37:09.415Z,10.23
2023-02-13T00:39:40.021Z,11.73
2023-02-13T00:42:09.249Z,9.73
2023-02-13T00:44:38.404Z,8.60
2023-02-13T00:47:07.730Z,9.90
2023-02-13T00:49:36.900Z,7.23
2023-02-13T00:52:06.548Z,8.83
2023-02-13T00:54:35.861Z,9.70
2023-02-13T00:57:06.566Z,10.47
2023-02-13T00:59:37.183Z,10.90
2023-02-13T01:02:06.463Z,12.27
2023-02-13T01:04:35.652Z,13.23
2023-02-13T01:07:05.083Z,14.40
2023-02-13T01:09:34.306Z,9.33
2023-02-13T01:12:03.477Z,8.27
2023-02-13T01:14:34.296Z,9.03
2023-02-13T01:17:03.707Z,8.27
2023-02-13T01:19:32.886Z,7.43
2023-02-13T01:22:02.251Z,9.27
2023-02-13T01:24:34.271Z,7.90
2023-02-13T01:27:03.713Z,10.03
2023-02-13T01:29:34.519Z,7.33
2023-02-13T01:32:05.356Z,8.97
2023-02-13T01:34:35.765Z,9.33
2023-02-13T01:37:06.607Z,11.10
2023-02-13T01:39:35.952Z,12.03
2023-02-13T01:42:05.099Z,8.60
2023-02-13T01:44:52.294Z,10.07
2023-02-13T01:47:24.586Z,11.17
2023-02-13T01:49:58.163Z,8.93
2023-02-13T01:52:28.031Z,11.37
2023-02-13T01:54:58.101Z,8.77
2023-02-13T01:57:29.955Z,11.93
2023-02-13T02:00:02.278Z,12.90
2023-02-13T02:02:33.806Z,8.03
2023-02-13T02:05:04.127Z,9.27
2023-02-13T02:07:33.730Z,13.40
2023-02-13T02:10:10.614Z,9.67
2023-02-13T02:12:44.252Z,8.90
2023-02-13T02:15:16.001Z,10.47
2023-02-13T02:17:45.361Z,11.80
2023-02-13T02:20:21.845Z,11.20
2023-02-13T02:23:08.967Z,19.23
2023-02-13T02:26:08.263Z,14.50
2023-02-13T02:28:44.098Z,19.40
2023-02-13T02:31:34.085Z,33.60
2023-02-13T02:34:12.290Z,18.13
2023-02-13T02:36:49.388Z,19.63
2023-02-13T02:39:23.580Z,16.70
2023-02-13T02:41:59.809Z,17.93
2023-02-13T02:44:39.067Z,14.33
2023-02-13T02:47:31.414Z,16.43
2023-02-13T02:50:12.805Z,12.53
2023-02-13T02:52:45.203Z,10.87
2023-02-13T02:55:19.811Z,16.70
2023-02-13T02:58:14.916Z,11.90
2023-02-13T03:01:02.330Z,14.00
2023-02-13T03:03:49.725Z,12.37
2023-02-13T03:06:22.693Z,13.37
2023-02-13T03:09:12.745Z,13.20
2023-02-13T03:12:01.601Z,12.50
2023-02-13T03:14:30.925Z,14.00
2023-02-13T03:17:17.819Z,15.20
2023-02-13T03:20:09.820Z,14.63
2023-02-13T03:22:44.357Z,13.27
2023-02-13T03:25:19.004Z,14.20
2023-02-13T03:28:08.019Z,16.33
2023-02-13T03:30:42.382Z,18.20
2023-02-13T03:33:18.452Z,14.47
2023-02-13T03:36:07.435Z,15.23
2023-02-13T03:38:44.473Z,19.73
2023-02-13T03:41:21.030Z,14.57
2023-02-13T03:43:56.355Z,15.87
2023-02-13T03:46:27.320Z,17.40
2023-02-13T03:49:14.918Z,11.93
2023-02-13T03:51:46.286Z,16.87
2023-02-13T03:54:19.186Z,13.10
2023-02-13T03:57:07.018Z,20.07
2023-02-13T03:59:37.365Z,15.50
2023-02-13T04:02:09.688Z,16.40
2023-02-13T04:04:43.402Z,20.40
2023-02-13T04:07:29.772Z,18.97
2023-02-13T04:10:01.290Z,16.53
2023-02-13T04:12:37.811Z,13.50
2023-02-13T04:15:09.309Z,13.27
2023-02-13T04:17:41.304Z,12.17
2023-02-13T04:20:11.206Z,13.77
2023-02-13T04:22:44.252Z,13.47
2023-02-13T04:25:16.310Z,14.37
2023-02-13T04:27:45.605Z,12.87
2023-02-13T04:30:15.364Z,11.00
2023-02-13T04:32:44.599Z,14.00
2023-02-13T04:35:14.957Z,14.07
2023-02-13T04:37:44.127Z,15.77
2023-02-13T04:40:13.693Z,13.43
2023-02-13T04:42:44.375Z,15.60
2023-02-13T04:45:13.569Z,16.50
2023-02-13T04:47:42.772Z,14.97
2023-02-13T04:50:12.564Z,13.67
2023-02-13T04:52:41.721Z,14.80
2023-02-13T04:55:11.404Z,15.27
2023-02-13T04:57:40.755Z,15.93
2023-02-13T05:00:12.419Z,17.83
2023-02-13T05:02:41.737Z,11.30
2023-02-13T05:05:10.942Z,10.77
2023-02-13T05:07:40.126Z,11.10
2023-02-13T05:10:09.716Z,9.67
2023-02-13T05:12:39.136Z,12.07
2023-02-13T05:15:08.933Z,9.20
2023-02-13T05:17:39.629Z,15.90
2023-02-13T05:20:09.489Z,13.60
2023-02-13T05:22:56.143Z,20.43
2023-02-13T05:25:25.306Z,12.73
2023-02-13T05:27:54.443Z,10.50
2023-02-13T05:30:22.948Z,21.37
2023-02-13T05:32:55.049Z,12.87
2023-02-13T05:35:25.073Z,17.93
2023-02-13T05:37:54.258Z,17.60
2023-02-13T05:40:23.477Z,18.67
2023-02-13T05:42:56.590Z,17.87
2023-02-13T05:45:25.760Z,25.50
2023-02-13T05:47:56.384Z,23.40
2023-02-13T05:50:25.759Z,16.30
2023-02-13T05:52:54.943Z,12.30
2023-02-13T05:55:24.445Z,15.13
2023-02-13T05:57:57.947Z,16.10
2023-02-13T06:00:27.252Z,17.30
2023-02-13T06:02:57.991Z,20.00
2023-02-13T06:05:27.255Z,16.50
2023-02-13T06:07:56.500Z,14.83
2023-02-13T06:10:25.741Z,16.37
2023-02-13T06:12:54.941Z,14.20
2023-02-13T06:15:24.141Z,15.83
2023-02-13T06:17:53.334Z,17.50
2023-02-13T06:20:24.036Z,13.20
2023-02-13T06:22:53.810Z,14.23
2023-02-13T06:25:23.432Z,15.40
2023-02-13T06:27:52.749Z,15.17
2023-02-13T06:30:22.184Z,14.47
2023-02-13T06:32:51.599Z,17.10
2023-02-13T06:35:20.985Z,16.93
2023-02-13T06:37:51.673Z,16.60
2023-02-13T06:40:21.084Z,19.63
2023-02-13T06:42:50.507Z,18.87
2023-02-13T06:45:19.854Z,16.07
2023-02-13T06:47:52.045Z,17.33
2023-02-13T06:50:21.559Z,15.17
2023-02-13T06:52:53.631Z,20.83
2023-02-13T06:55:22.976Z,14.93
2023-02-13T06:57:52.430Z,19.57
2023-02-13T07:00:22.265Z,20.63
2023-02-13T07:02:51.534Z,20.57
2023-02-13T07:05:20.815Z,17.33
2023-02-13T07:07:50.138Z,16.93
2023-02-13T07:10:21.071Z,19.60
2023-02-13T07:13:03.538Z,15.50
2023-02-13T07:15:34.235Z,20.30
2023-02-13T07:18:03.632Z,19.07
2023-02-13T07:20:32.844Z,19.57
2023-02-13T07:23:02.446Z,23.13
2023-02-13T07:25:33.439Z,18.17
2023-02-13T07:28:06.518Z,17.37
2023-02-13T07:30:36.396Z,23.27
2023-02-13T07:33:05.939Z,21.20
2023-02-13T07:35:36.449Z,23.70
2023-02-13T07:38:06.020Z,22.23
2023-02-13T07:40:37.298Z,24.43
2023-02-13T07:43:06.757Z,25.83
2023-02-13T07:45:36.210Z,20.67
2023-02-13T07:48:05.474Z,26.47
2023-02-13T07:50:34.739Z,23.07
2023-02-13T07:53:04.564Z,28.67
2023-02-13T07:55:34.025Z,28.23
2023-02-13T07:58:04.906Z,26.67
2023-02-13T08:00:34.201Z,27.90
2023-02-13T08:03:03.590Z,23.70
2023-02-13T08:05:34.485Z,28.13
2023-02-13T08:08:03.886Z,41.50
2023-02-13T08:10:50.804Z,27.23
2023-02-13T08:13:21.808Z,30.40
2023-02-13T08:15:50.973Z,24.60
2023-02-13T08:18:20.553Z,31.03
2023-02-13T08:20:49.931Z,37.60
2023-02-13T08:23:19.452Z,32.80
2023-02-13T08:25:50.067Z,32.00
2023-02-13T08:28:19.370Z,28.23
2023-02-13T08:30:50.148Z,28.43
2023-02-13T08:33:19.644Z,26.00
2023-02-13T08:35:49.178Z,27.77
2023-02-13T08:38:18.461Z,27.70
2023-02-13T08:40:47.760Z,32.60
2023-02-13T08:43:16.985Z,35.03
2023-02-13T08:45:46.242Z,29.47
2023-02-13T08:48:17.116Z,28.50
2023-02-13T08:50:46.252Z,36.80
2023-02-13T08:53:15.580Z,32.83
2023-02-13T08:55:44.894Z,30.63
2023-02-13T08:58:14.335Z,74.63
2023-02-13T09:00:43.499Z,34.27
2023-02-13T09:03:12.756Z,28.90
2023-02-13T09:05:43.660Z,30.27
2023-02-13T09:08:14.039Z,32.13
2023-02-13T09:10:43.896Z,29.80
2023-02-13T09:13:13.287Z,33.83
2023-02-13T09:15:43.236Z,37.87
2023-02-13T09:18:12.461Z,30.00
2023-02-13T09:20:43.195Z,33.80
2023-02-13T09:23:12.631Z,55.83
2023-02-13T09:25:41.917Z,31.40
2023-02-13T09:28:11.591Z,29.87
2023-02-13T09:30:40.982Z,28.17
2023-02-13T09:33:12.369Z,31.97
2023-02-13T09:35:42.499Z,30.90
2023-02-13T09:38:13.440Z,32.33
2023-02-13T09:40:45.862Z,31.60
2023-02-13T09:43:16.585Z,28.80
2023-02-13T09:45:46.409Z,29.27
2023-02-13T09:48:20.360Z,27.40
2023-02-13T09:50:49.980Z,30.77
2023-02-13T09:53:23.423Z,23.23
2023-02-13T09:55:58.492Z,22.27
2023-02-13T09:58:36.233Z,21.70
2023-02-13T10:01:07.678Z,19.03
2023-02-13T10:03:43.258Z,19.27
2023-02-13T10:06:16.469Z,16.67
2023-02-13T10:08:57.661Z,14.50
2023-02-13T10:11:32.869Z,16.70
2023-02-13T10:14:05.648Z,16.30
2023-02-13T10:16:37.528Z,15.33
2023-02-13T10:19:08.369Z,14.50
2023-02-13T10:21:39.932Z,16.27
2023-02-13T10:24:14.408Z,17.63
2023-02-13T10:26:45.980Z,13.60
2023-02-13T10:29:35.917Z,12.53
2023-02-13T10:32:06.875Z,29.63
2023-02-13T10:34:39.972Z,19.83
2023-02-13T10:37:16.083Z,25.90
2023-02-13T10:39:48.479Z,16.17
2023-02-13T10:42:24.098Z,18.17
2023-02-13T10:44:58.718Z,17.60
2023-02-13T10:47:33.283Z,19.57
2023-02-13T10:50:07.554Z,13.60
2023-02-13T10:52:41.625Z,10.07
2023-02-13T10:55:17.457Z,11.37
2023-02-13T10:57:59.630Z,11.70
2023-02-13T11:00:32.719Z,15.23
2023-02-13T11:03:02.257Z,14.40
2023-02-13T11:05:33.637Z,11.40
2023-02-13T11:08:03.539Z,17.70
2023-02-13T11:10:34.743Z,14.60
2023-02-13T11:13:16.776Z,11.33
2023-02-13T11:15:58.488Z,13.40
2023-02-13T11:18:29.412Z,13.87
2023-02-13T11:21:04.229Z,16.03
2023-02-13T11:23:39.003Z,13.90
2023-02-13T11:26:12.086Z,21.20
2023-02-13T11:28:47.295Z,21.83
2023-02-13T11:31:27.545Z,14.23
2023-02-13T11:33:58.965Z,12.40
2023-02-13T11:36:30.111Z,16.17
2023-02-13T11:39:00.189Z,14.33
2023-02-13T11:41:32.144Z,33.30
2023-02-13T11:44:02.627Z,14.63
2023-02-13T11:46:32.467Z,23.10
2023-02-13T11:49:03.538Z,17.20
2023-02-13T11:51:43.693Z,21.80
2023-02-13T11:54:31.201Z,18.53
2023-02-13T11:57:05.040Z,19.47
2023-02-13T11:59:41.005Z,16.00
2023-02-13T12:02:22.376Z,15.17
2023-02-13T12:04:53.284Z,21.80
2023-02-13T12:07:24.248Z,28.63
2023-02-13T12:09:57.231Z,16.40
2023-02-13T12:12:31.190Z,12.47
2023-02-13T12:15:00.654Z,18.47
2023-02-13T12:17:32.569Z,15.87
2023-02-13T12:20:02.754Z,16.70
2023-02-13T12:22:35.036Z,14.70
2023-02-13T12:25:17.514Z,21.43
2023-02-13T12:27:52.962Z,22.73
2023-02-13T12:30:40.240Z,11.47
2023-02-13T12:33:17.550Z,12.20
2023-02-13T12:35:48.765Z,15.53
2023-02-13T12:38:24.604Z,16.90
2023-02-13T12:41:02.245Z,15.03
2023-02-13T12:43:50.293Z,14.60
2023-02-13T12:46:23.425Z,13.97
2023-02-13T12:48:55.181Z,16.73
2023-02-13T12:51:32.293Z,15.47
2023-02-13T12:54:17.032Z,17.97
2023-02-13T12:56:55.339Z,23.13
2023-02-13T12:59:29.746Z,12.60
2023-02-13T13:02:12.710Z,13.53
2023-02-13T13:04:48.064Z,17.60
2023-02-13T13:07:40.261Z,16.60
2023-02-13T13:10:28.295Z,14.43
2023-02-13T13:13:02.236Z,13.20
2023-02-13T13:15:38.425Z,14.40
2023-02-13T13:18:16.617Z,14.17
2023-02-13T13:20:57.783Z,14.60
2023-02-13T13:23:31.613Z,13.23
2023-02-13T13:26:06.126Z,12.70
2023-02-13T13:28:37.118Z,12.57
2023-02-13T13:31:08.557Z,16.93
2023-02-13T13:33:39.058Z,16.63
2023-02-13T13:36:11.932Z,11.90
2023-02-13T13:38:45.692Z,10.27
2023-02-13T13:41:17.753Z,13.33
2023-02-13T13:43:57.084Z,11.60
2023-02-13T13:46:33.247Z,13.00
2023-02-13T13:49:09.105Z,12.57
2023-02-13T13:51:38.633Z,11.40
2023-02-13T13:54:21.148Z,13.67
2023-02-13T13:57:06.896Z,17.67
2023-02-13T14:00:02.972Z,12.73
2023-02-13T14:02:46.073Z,13.07
2023-02-13T14:05:30.128Z,14.40
2023-02-13T14:08:00.783Z,18.23
2023-02-13T14:10:57.517Z,13.73
2023-02-13T14:13:34.333Z,10.30
2023-02-13T14:16:03.865Z,14.63
2023-02-13T14:18:34.709Z,14.10
2023-02-13T14:21:04.835Z,14.80
2023-02-13T14:23:38.906Z,12.33
2023-02-13T14:26:19.996Z,13.43
2023-02-13T14:28:58.455Z,16.50
2023-02-13T14:31:30.091Z,12.17
2023-02-13T14:34:02.043Z,14.77
2023-02-13T14:36:34.011Z,9.43
2023-02-13T14:39:04.460Z,13.30
2023-02-13T14:41:57.532Z,10.33
2023-02-13T14:44:27.605Z,9.20
2023-02-13T14:46:58.460Z,11.50
2023-02-13T14:49:30.244Z,11.77
2023-02-13T14:52:00.882Z,14.77
2023-02-13T14:54:32.703Z,10.00
2023-02-13T14:57:07.326Z,13.83
2023-02-13T14:59:38.228Z,14.53
2023-02-13T15:02:15.059Z,12.17
2023-02-13T15:04:47.078Z,8.90
2023-02-13T15:07:18.262Z,9.50
2023-02-13T15:09:50.721Z,12.10
2023-02-13T15:12:33.072Z,17.37
2023-02-13T15:15:03.085Z,10.53
2023-02-13T15:17:38.503Z,11.57
2023-02-13T15:20:19.623Z,12.03
2023-02-13T15:22:49.391Z,9.30
2023-02-13T15:25:26.840Z,15.83
2023-02-13T15:27:56.837Z,29.50
2023-02-13T15:30:27.188Z,15.03
2023-02-13T15:32:56.881Z,13.13
2023-02-13T15:35:29.650Z,10.70
2023-02-13T15:37:59.173Z,12.37
2023-02-13T15:40:29.742Z,13.40
2023-02-13T15:42:59.877Z,21.50
2023-02-13T15:45:30.080Z,10.07
2023-02-13T15:47:59.599Z,12.13
2023-02-13T15:50:32.152Z,11.30
2023-02-13T15:53:03.004Z,8.53
2023-02-13T15:55:34.028Z,10.80
2023-02-13T15:58:04.205Z,9.43
2023-02-13T16:00:35.537Z,11.53
2023-02-13T16:03:06.168Z,22.60
2023-02-13T16:05:41.412Z,21.60
2023-02-13T16:08:28.517Z,13.50
2023-02-13T16:11:16.223Z,13.30
2023-02-13T16:13:53.557Z,12.70
2023-02-13T16:16:24.263Z,12.30
2023-02-13T16:18:54.558Z,9.77
2023-02-13T16:21:26.219Z,11.67
2023-02-13T16:23:58.876Z,12.47
2023-02-13T16:26:28.257Z,13.10
2023-02-13T16:28:57.539Z,11.10
2023-02-13T16:31:27.135Z,12.67
2023-02-13T16:33:56.427Z,10.90
2023-02-13T16:36:31.213Z,12.70
2023-02-13T16:39:00.518Z,16.83
2023-02-13T16:41:33.702Z,14.13
2023-02-13T16:44:03.090Z,14.77
2023-02-13T16:46:36.628Z,12.87
2023-02-13T16:49:20.829Z,15.23
2023-02-13T16:51:57.483Z,13.20
2023-02-13T16:54:38.362Z,11.67
2023-02-13T16:57:09.288Z,14.73
2023-02-13T16:59:45.134Z,18.40
2023-02-13T17:02:21.933Z,14.50
2023-02-13T17:04:52.301Z,16.60
2023-02-13T17:07:24.516Z,16.27
2023-02-13T17:09:54.924Z,19.73
2023-02-13T17:12:24.344Z,13.80
2023-02-13T17:14:53.937Z,18.73
2023-02-13T17:17:24.441Z,13.37
2023-02-13T17:19:53.640Z,18.20
2023-02-13T17:22:27.153Z,15.50
2023-02-13T17:24:56.490Z,15.20
2023-02-13T17:27:25.788Z,16.43
2023-02-13T17:29:55.184Z,14.63
2023-02-13T17:32:25.682Z,12.00
2023-02-13T17:34:54.917Z,16.50
2023-02-13T17:37:26.944Z,13.67
2023-02-13T17:39:56.671Z,23.30
2023-02-13T17:42:26.600Z,24.00
2023-02-13T17:44:56.375Z,15.10
2023-02-13T17:47:26.266Z,20.03
2023-02-13T17:50:05.127Z,13.00
2023-02-13T17:52:40.449Z,18.57
2023-02-13T17:55:17.024Z,14.87
2023-02-13T17:57:46.451Z,16.13
2023-02-13T18:00:16.342Z,16.33
2023-02-13T18:02:45.625Z,13.10
2023-02-13T18:05:14.921Z,16.20
2023-02-13T18:07:45.946Z,16.77
2023-02-13T18:10:17.155Z,15.13
2023-02-13T18:12:47.124Z,18.83
2023-02-13T18:15:16.634Z,18.97
2023-02-13T18:17:46.023Z,18.13
2023-02-13T18:20:17.002Z,20.50
2023-02-13T18:22:47.836Z,18.40
2023-02-13T18:25:17.057Z,16.40
2023-02-13T18:27:46.532Z,22.07
2023-02-13T18:30:16.874Z,15.50
2023-02-13T18:32:46.378Z,19.60
2023-02-13T18:35:17.626Z,16.57
2023-02-13T18:37:48.338Z,17.70
2023-02-13T18:40:17.976Z,28.83
2023-02-13T18:42:47.877Z,18.10
2023-02-13T18:45:17.897Z,22.23
2023-02-13T18:47:47.448Z,20.73
2023-02-13T18:50:16.788Z,33.30
2023-02-13T18:52:46.893Z,28.17
2023-02-13T18:55:17.689Z,26.03
2023-02-13T18:57:48.127Z,21.03
2023-02-13T19:00:18.002Z,21.50
2023-02-13T19:02:47.239Z,20.67
2023-02-13T19:05:16.713Z,16.40
2023-02-13T19:07:46.381Z,21.93
2023-02-13T19:10:16.646Z,19.80
2023-02-13T19:12:47.427Z,20.03
2023-02-13T19:15:16.645Z,20.43
2023-02-13T19:17:46.057Z,23.40
2023-02-13T19:20:16.809Z,17.80
2023-02-13T19:22:46.447Z,23.70
2023-02-13T19:25:15.697Z,23.93
2023-02-13T19:27:44.906Z,20.70
2023-02-13T19:30:16.133Z,22.67
2023-02-13T19:32:45.400Z,19.77
2023-02-13T19:35:14.601Z,20.80
2023-02-13T19:37:44.733Z,25.77
2023-02-13T19:40:14.580Z,24.23
2023-02-13T19:42:43.935Z,26.30
2023-02-13T19:45:13.177Z,24.37
2023-02-13T19:47:43.970Z,23.00
2023-02-13T19:50:13.362Z,21.77
2023-02-13T19:52:42.564Z,24.10
2023-02-13T19:55:12.089Z,28.30
2023-02-13T19:57:41.363Z,22.30
2023-02-13T20:00:11.198Z,23.37
2023-02-13T20:02:45.001Z,22.70
2023-02-13T20:05:14.438Z,25.37
2023-02-13T20:07:43.642Z,29.97
2023-02-13T20:10:13.449Z,29.00
2023-02-13T20:12:42.591Z,26.70
2023-02-13T20:15:12.117Z,23.10
2023-02-13T20:17:41.333Z,25.60
2023-02-13T20:20:13.229Z,27.23
2023-02-13T20:22:42.590Z,24.80
2023-02-13T20:25:11.952Z,26.63
2023-02-13T20:27:42.862Z,30.10
2023-02-13T20:30:13.105Z,33.83
2023-02-13T20:32:43.001Z,30.97
2023-02-13T20:35:13.667Z,28.80
2023-02-13T20:37:43.504Z,84.23
2023-02-13T20:40:14.292Z,178.27
2023-02-13T20:42:43.518Z,34.17
2023-02-13T20:45:12.783Z,35.30
2023-02-13T20:47:43.041Z,36.43
2023-02-13T20:50:14.498Z,38.90
2023-02-13T20:52:44.020Z,32.40
2023-02-13T20:55:13.192Z,43.03
2023-02-13T20:57:42.442Z,35.47
2023-02-13T21:00:13.720Z,39.87
2023-02-13T21:02:42.968Z,34.67
2023-02-13T21:05:13.854Z,42.77
2023-02-13T21:07:43.244Z,35.37
2023-02-13T21:10:12.866Z,34.33
2023-02-13T21:12:42.103Z,34.27
2023-02-13T21:15:11.676Z,33.93
2023-02-13T21:17:41.273Z,35.43
2023-02-13T21:20:10.972Z,39.33
2023-02-13T21:22:41.653Z,35.17
2023-02-13T21:25:10.804Z,39.73
2023-02-13T21:27:40.317Z,40.63
2023-02-13T21:30:10.597Z,38.10
2023-02-13T21:32:40.666Z,35.70
2023-02-13T21:35:10.307Z,33.27
2023-02-13T21:37:39.528Z,43.57
2023-02-13T21:40:10.991Z,34.80
2023-02-13T21:42:40.207Z,36.17
2023-02-13T21:45:11.617Z,34.03
2023-02-13T21:47:40.999Z,39.63
2023-02-13T21:50:10.623Z,39.20
2023-02-13T21:52:39.845Z,37.30
2023-02-13T21:55:10.705Z,39.70
2023-02-13T21:57:40.026Z,48.00
2023-02-13T22:00:10.785Z,39.07
2023-02-13T22:02:43.046Z,40.40
2023-02-13T22:05:12.286Z,42.47
2023-02-13T22:07:55.282Z,37.67
2023-02-13T22:10:26.004Z,39.87
2023-02-13T22:12:55.444Z,37.53
2023-02-13T22:15:24.559Z,39.53
2023-02-13T22:17:54.176Z,38.83
2023-02-13T22:20:23.664Z,43.67
2023-02-13T22:22:53.262Z,41.60
2023-02-13T22:25:22.604Z,41.97
2023-02-13T22:27:53.410Z,40.47
2023-02-13T22:30:22.812Z,33.90
2023-02-13T22:32:52.062Z,38.83
2023-02-13T22:35:21.262Z,33.03
2023-02-13T22:37:50.498Z,35.83
2023-02-13T22:40:20.058Z,39.70
2023-02-13T22:42:49.212Z,37.50
2023-02-13T22:45:20.150Z,37.53
2023-02-13T22:47:49.662Z,41.80
2023-02-13T22:50:18.853Z,36.80
2023-02-13T22:52:47.984Z,40.93
2023-02-13T22:55:17.264Z,48.60
2023-02-13T22:57:48.578Z,48.37
2023-02-13T23:00:19.606Z,45.87
2023-02-13T23:02:48.855Z,41.97
2023-02-13T23:05:18.169Z,47.37
2023-02-13T23:07:47.524Z,53.50
2023-02-13T23:10:16.668Z,48.40
2023-02-13T23:12:46.439Z,48.00
2023-02-13T23:15:16.614Z,53.00
2023-02-13T23:18:04.694Z,49.67
2023-02-13T23:20:34.431Z,55.73
2023-02-13T23:23:04.847Z,52.03
2023-02-13T23:25:34.135Z,55.97
2023-02-13T23:28:03.425Z,53.70
2023-02-13T23:30:32.849Z,59.63
2023-02-13T23:33:03.509Z,51.93
2023-02-13T23:35:32.857Z,56.33
2023-02-13T23:38:02.086Z,54.57
2023-02-13T23:40:31.339Z,56.77
2023-02-13T23:43:00.685Z,54.83
2023-02-13T23:45:30.165Z,57.00
2023-02-13T23:47:59.407Z,56.93
2023-02-13T23:50:30.233Z,53.47
2023-02-13T23:53:00.567Z,52.80
2023-02-13T23:55:29.797Z,60.27
2023-02-13T23:57:59.061Z,58.30
